Ulceby, United Kingdom
Current Conditions -  °F | °C
As of 3:50 AM on Sunday 23 Nov 2014 (Local Time) from EGNJ Reporting Station
Light Rain Light Rain  
Wind Chill: 46°   Ceiling: Unl
Heat Index: 48°   Visibility: 3mi
Dew Point: 48°   Wind: 6mph
Humidity: 100%   Direction: 240°WSW
Pressure: 29.97"   Gusts: NA
Location:  53.58°N, 0.32°W
Report Text: EGNJ 230350Z AUTO 24005KT 5000 -RA FEW034/// SCT044/// 09/09 Q1015
Loading
Personal Weather Stations






























Interactive Weather Map New forecast layout! Learn more

10-Day Weather Forecast

Advertisements
Track Severe Weather on mobile